Time;durP1;ratioP1;P1;durP2;ratioP2;P2;SDS_P1;SDS_P2;PMS_P1;PMS_P2;Temp;Humidity;BMP_temperature;BMP_pressure;BME280_temperature;BME280_humidity;BME280_pressure;Samples;Min_cycle;Max_cycle;Signal;HPM_P1;HPM_P2
2022/10/28 00:01:40;;;;;;;4.80;4.40;;;;;;;21.50;39.68;96291.06;6128717;28;103468;-78
2022/10/28 00:04:43;;;;;;;4.90;4.50;;;;;;;21.51;39.38;96297.22;6138597;28;103052;-78
2022/10/28 00:07:47;;;;;;;5.10;4.70;;;;;;;21.47;39.88;96294.25;6138064;28;102883;-78
2022/10/28 00:10:51;;;;;;;5.50;4.90;;;;;;;21.48;39.69;96292.41;6131218;28;103548;-77
2022/10/28 00:13:55;;;;;;;4.80;4.40;;;;;;;21.47;39.52;96288.94;6138587;28;104301;-77
2022/10/28 00:16:58;;;;;;;4.73;4.33;;;;;;;21.47;39.81;96291.59;6138726;28;103110;-77
2022/10/28 00:20:01;;;;;;;4.43;4.03;;;;;;;21.46;39.46;96289.22;6135723;28;104846;-76
2022/10/28 00:23:08;;;;;;;4.63;4.23;;;;;;;21.43;39.57;96285.22;6134906;28;103048;-77
2022/10/28 00:26:13;;;;;;;4.07;3.60;;;;;;;21.45;39.89;96282.28;6139314;28;103796;-77
2022/10/28 00:29:18;;;;;;;4.70;4.30;;;;;;;21.43;39.73;96284.44;6137667;28;105400;-77
2022/10/28 00:32:21;;;;;;;5.27;4.77;;;;;;;21.42;39.42;96283.63;6131614;28;104470;-77
2022/10/28 00:35:24;;;;;;;4.50;4.20;;;;;;;21.40;39.51;96280.44;6138153;28;105292;-77
2022/10/28 00:38:30;;;;;;;4.20;3.90;;;;;;;21.42;39.66;96275.66;6138165;28;103425;-77
2022/10/28 00:41:36;;;;;;;4.47;4.13;;;;;;;21.44;39.27;96283.34;6137975;28;103132;-77
2022/10/28 00:44:57;;;;;;;4.50;4.10;;;;;;;21.41;39.39;96276.72;6130926;28;106648;-77
2022/10/28 00:48:02;;;;;;;4.53;4.13;;;;;;;21.41;39.41;96274.06;6113514;28;103230;-77
2022/10/28 00:51:05;;;;;;;4.97;4.47;;;;;;;21.40;39.28;96277.78;6113555;28;103189;-76
2022/10/28 00:54:12;;;;;;;4.60;4.20;;;;;;;21.35;39.94;96267.16;6113303;28;103615;-78
2022/10/28 00:57:18;;;;;;;4.80;4.40;;;;;;;21.40;39.71;96279.66;6127551;28;103915;-77
2022/10/28 01:00:21;;;;;;;5.30;4.80;;;;;;;21.41;39.46;96282.03;6137369;28;105121;-76
2022/10/28 01:03:25;;;;;;;5.00;4.50;;;;;;;21.38;39.66;96279.94;6137467;28;103100;-77
2022/10/28 01:06:29;;;;;;;4.50;4.10;;;;;;;21.36;39.55;96276.75;6134833;28;103757;-78
2022/10/28 01:09:33;;;;;;;5.17;4.77;;;;;;;21.36;39.77;96276.75;6140935;28;103642;-77
2022/10/28 01:12:48;;;;;;;4.70;4.30;;;;;;;21.35;39.56;96280.47;6141484;28;103433;-76
2022/10/28 01:15:58;;;;;;;5.50;4.33;;;;;;;21.35;39.47;96274.34;6140892;28;104615;-76
2022/10/28 01:19:50;;;;;;;5.27;4.70;;;;;;;21.35;39.72;96277.00;6135046;28;103556;-76
2022/10/28 01:23:03;;;;;;;4.00;3.70;;;;;;;21.34;39.38;96267.41;6114303;28;103134;-76
2022/10/28 01:26:38;;;;;;;5.13;4.63;;;;;;;21.33;39.71;96279.91;6140623;28;103428;-76
2022/10/28 01:30:13;;;;;;;4.53;4.13;;;;;;;21.34;39.44;96275.38;6133929;28;103230;-76
2022/10/28 01:33:25;;;;;;;4.67;4.27;;;;;;;21.35;39.59;96277.81;6140681;28;104512;-77
2022/10/28 01:36:36;;;;;;;5.00;4.50;;;;;;;21.28;39.54;96277.28;6141025;28;103151;-76
2022/10/28 01:39:45;;;;;;;4.27;3.87;;;;;;;21.33;39.53;96276.47;6140071;28;105966;-77
2022/10/28 01:42:56;;;;;;;4.80;4.10;;;;;;;21.31;39.64;96278.59;6137353;28;104619;-81
2022/10/28 01:46:03;;;;;;;4.73;4.23;;;;;;;21.30;39.35;96280.47;6141318;28;103246;-74
2022/10/28 01:49:15;;;;;;;4.40;4.10;;;;;;;21.31;39.61;96282.06;6140660;28;103530;-74
2022/10/28 01:52:23;;;;;;;5.00;4.50;;;;;;;21.31;39.53;96282.06;6134254;28;103418;-74
2022/10/28 01:55:28;;;;;;;4.87;4.47;;;;;;;21.29;39.30;96286.84;6140490;28;103018;-74
2022/10/28 01:58:32;;;;;;;4.23;3.93;;;;;;;21.25;39.18;96285.81;6140035;28;103367;-76
2022/10/28 02:01:36;;;;;;;4.43;4.13;;;;;;;21.31;39.21;96289.25;6140846;28;107163;-74
2022/10/28 02:04:41;;;;;;;4.17;3.83;;;;;;;21.26;39.60;96295.38;6132944;28;103526;-74
2022/10/28 02:07:47;;;;;;;4.67;4.00;;;;;;;21.26;39.61;96292.72;6140383;28;106095;-75
2022/10/28 02:11:01;;;;;;;4.50;4.10;;;;;;;21.26;39.68;96295.38;6116145;28;103229;-75
2022/10/28 02:14:17;;;;;;;4.90;4.50;;;;;;;21.25;39.51;96293.78;6113410;28;103233;-74
2022/10/28 02:17:31;;;;;;;4.33;3.93;;;;;;;21.25;39.76;96285.00;6139267;28;105398;-74
2022/10/28 02:20:46;;;;;;;4.30;3.90;;;;;;;21.26;39.67;96291.94;6116520;28;104557;-74
2022/10/28 02:23:55;;;;;;;4.53;4.13;;;;;;;21.20;39.07;96283.97;6116040;28;103269;-75
2022/10/28 02:27:05;;;;;;;5.10;4.70;;;;;;;21.24;39.57;96286.06;6109607;28;103265;-74
2022/10/28 02:30:18;;;;;;;4.60;4.20;;;;;;;21.23;39.54;96295.13;6115935;28;103184;-73
2022/10/28 02:33:25;;;;;;;5.00;4.50;;;;;;;21.27;39.58;96290.84;6130688;28;103416;-74
2022/10/28 02:36:35;;;;;;;5.33;4.77;;;;;;;21.25;39.79;96293.00;6113108;28;103422;-74
2022/10/28 02:39:42;;;;;;;5.40;4.90;;;;;;;21.28;39.51;96290.59;6133573;28;104063;-75
2022/10/28 02:42:50;;;;;;;4.93;4.43;;;;;;;21.24;39.67;96286.88;6140571;28;103306;-74
2022/10/28 02:45:58;;;;;;;5.70;5.10;;;;;;;21.13;39.42;96275.44;6139921;28;103390;-75
2022/10/28 02:49:05;;;;;;;5.20;4.77;;;;;;;21.22;39.53;96299.66;6134058;28;103428;-74
2022/10/28 02:52:11;;;;;;;4.93;4.53;;;;;;;21.18;39.90;96290.63;6140390;28;103442;-75
2022/10/28 02:55:14;;;;;;;4.90;4.30;;;;;;;21.18;39.64;96293.28;6140642;28;105389;-74
2022/10/28 02:58:20;;;;;;;4.70;4.30;;;;;;;21.20;39.64;96291.16;6140435;28;106920;-75
2022/10/28 03:01:23;;;;;;;6.27;4.60;;;;;;;21.18;39.87;96290.63;6134163;28;103579;-74
2022/10/28 03:04:27;;;;;;;4.53;4.13;;;;;;;21.19;39.61;96300.22;6139630;28;103664;-74
2022/10/28 03:07:31;;;;;;;4.87;4.40;;;;;;;21.21;39.95;96287.41;6138669;28;103566;-74
2022/10/28 03:10:34;;;;;;;6.60;5.10;;;;;;;21.21;39.72;96293.53;6137245;28;105571;-76
2022/10/28 03:13:37;;;;;;;6.73;6.03;;;;;;;21.20;39.39;96297.28;6136519;28;106107;-73
2022/10/28 03:16:40;;;;;;;5.87;5.20;;;;;;;21.24;39.37;96297.53;6140201;28;106428;-74
2022/10/28 03:19:43;;;;;;;5.67;4.57;;;;;;;21.24;39.48;96297.53;6140072;28;106589;-73
2022/10/28 03:22:48;;;;;;;5.07;4.67;;;;;;;21.29;39.69;96289.50;6131674;28;106191;-74
2022/10/28 03:25:51;;;;;;;5.00;4.60;;;;;;;21.31;39.27;96286.59;6119390;28;103069;-74
2022/10/28 03:28:54;;;;;;;6.10;5.60;;;;;;;21.32;39.47;96290.84;6138524;28;103685;-74
2022/10/28 03:31:57;;;;;;;6.07;5.57;;;;;;;21.35;39.63;96293.78;6139132;28;105617;-74
2022/10/28 03:35:00;;;;;;;6.90;6.30;;;;;;;21.33;39.76;96290.56;6131578;28;103052;-73
2022/10/28 03:38:05;;;;;;;5.50;5.00;;;;;;;21.35;39.87;96296.44;6138418;28;103119;-74
2022/10/28 03:41:08;;;;;;;8.10;6.20;;;;;;;21.34;39.75;96297.50;6138817;28;103226;-73
2022/10/28 03:44:11;;;;;;;7.00;6.40;;;;;;;21.33;39.34;96311.06;6139796;28;103461;-75
2022/10/28 03:47:15;;;;;;;7.70;6.93;;;;;;;21.23;38.69;96306.56;6133120;28;103536;-75
2022/10/28 03:50:18;;;;;;;9.97;8.97;;;;;;;21.14;38.21;96295.66;6139323;28;103202;-74
2022/10/28 03:53:22;;;;;;;9.03;8.23;;;;;;;21.11;37.97;96298.88;6139123;28;103532;-74
2022/10/28 03:56:30;;;;;;;10.30;8.27;;;;;;;21.17;38.76;96303.13;6135519;28;103115;-78
2022/10/28 03:59:33;;;;;;;15.20;13.70;;;;;;;21.15;38.38;96297.25;6136217;28;104218;-76
2022/10/28 04:02:36;;;;;;;21.13;19.20;;;;;;;21.15;38.27;96299.91;6139050;28;103334;-75
2022/10/28 04:05:39;;;;;;;18.77;17.03;;;;;;;21.10;37.64;96297.28;6138597;28;103756;-74
2022/10/28 04:08:44;;;;;;;15.40;13.87;;;;;;;21.15;38.89;96299.91;6130783;28;103220;-75
2022/10/28 04:11:48;;;;;;;12.90;11.67;;;;;;;21.17;38.50;96296.97;6127271;28;103280;-76
2022/10/28 04:14:52;;;;;;;13.77;12.30;;;;;;;21.18;38.72;96307.41;6148035;28;106214;-76
2022/10/28 04:17:55;;;;;;;13.90;11.10;;;;;;;21.21;38.99;96304.19;6162983;28;103002;-76
2022/10/28 04:20:58;;;;;;;12.30;10.97;;;;;;;21.22;38.24;96304.97;6132681;28;104601;-76
2022/10/28 04:24:03;;;;;;;11.00;9.50;;;;;;;21.06;37.20;96308.72;6138848;28;103452;-76
2022/10/28 04:27:07;;;;;;;10.23;9.10;;;;;;;20.97;37.09;96300.44;6138659;28;103092;-75
2022/10/28 04:30:13;;;;;;;11.70;10.10;;;;;;;20.96;36.76;96303.38;6136197;28;103196;-77
2022/10/28 04:33:16;;;;;;;9.70;8.70;;;;;;;20.85;36.74;96295.41;6135320;28;103457;-75
2022/10/28 04:36:19;;;;;;;10.13;9.27;;;;;;;20.81;36.66;96304.97;6139045;28;103436;-76
2022/10/28 04:39:24;;;;;;;10.87;8.53;;;;;;;20.74;36.78;96301.00;6140607;28;107595;-76
2022/10/28 04:42:27;;;;;;;10.30;8.50;;;;;;;20.74;36.35;96296.47;6136068;28;103240;-77
2022/10/28 04:45:31;;;;;;;10.70;9.57;;;;;;;20.69;36.39;96301.78;6142189;28;104212;-78
2022/10/28 04:48:35;;;;;;;10.20;9.20;;;;;;;20.73;36.36;96300.19;6142653;28;103180;-75
2022/10/28 04:51:42;;;;;;;14.20;12.70;;;;;;;20.61;36.81;96300.44;6143298;28;103686;-78
2022/10/28 04:54:46;;;;;;;14.37;13.03;;;;;;;20.56;36.54;96303.09;6135370;28;106891;-75
2022/10/28 04:57:56;;;;;;;13.50;10.73;;;;;;;20.44;36.43;96293.78;6143398;28;105392;-76
2022/10/28 05:00:59;;;;;;;10.27;9.30;;;;;;;20.38;36.51;96300.97;6143023;28;103052;-76
2022/10/28 05:04:02;;;;;;;8.73;7.07;;;;;;;20.38;36.78;96310.78;6143430;28;103006;-75
2022/10/28 05:07:06;;;;;;;7.40;6.70;;;;;;;20.32;36.80;96302.78;6135334;28;105559;-76
2022/10/28 05:10:14;;;;;;;10.00;7.10;;;;;;;20.26;36.75;96309.16;6141100;28;107637;-76
2022/10/28 05:13:17;;;;;;;9.10;6.87;;;;;;;20.30;36.61;96314.75;6142396;28;103090;-76
2022/10/28 05:16:23;;;;;;;7.60;6.77;;;;;;;20.28;36.69;96309.69;6134736;28;106714;-76
2022/10/28 05:19:26;;;;;;;7.37;6.67;;;;;;;20.23;37.09;96312.31;6142382;28;105362;-75
2022/10/28 05:22:29;;;;;;;8.17;5.50;;;;;;;20.23;36.86;96320.31;6142057;28;103546;-75
2022/10/28 05:25:34;;;;;;;7.53;5.70;;;;;;;20.25;36.79;96318.19;6142350;28;104301;-77
2022/10/28 05:28:37;;;;;;;7.23;5.70;;;;;;;20.24;37.00;96323.75;6136209;28;104722;-78
2022/10/28 05:31:40;;;;;;;5.90;5.40;;;;;;;20.20;37.21;96325.34;6142549;28;105339;-75
2022/10/28 05:34:44;;;;;;;6.37;5.30;;;;;;;20.24;36.95;96327.25;6142733;28;106303;-75
2022/10/28 05:37:47;;;;;;;9.60;7.47;;;;;;;20.26;36.97;96329.63;6142681;28;105281;-76
2022/10/28 05:40:52;;;;;;;11.80;7.80;;;;;;;20.24;37.00;96327.25;6133509;28;103657;-76
2022/10/28 05:43:58;;;;;;;15.03;8.50;;;;;;;20.17;37.21;96329.31;6142207;28;104552;-76
2022/10/28 05:47:01;;;;;;;13.20;9.03;;;;;;;20.22;37.13;96336.50;6142475;28;105177;-76
2022/10/28 05:50:04;;;;;;;13.40;8.63;;;;;;;20.16;37.00;96329.56;6136879;28;103582;-78
2022/10/28 05:53:08;;;;;;;12.97;8.70;;;;;;;20.22;36.95;96339.16;6137400;28;102991;-76
2022/10/28 05:56:12;;;;;;;11.07;8.47;;;;;;;20.38;39.02;96345.34;6141891;28;103027;-76
2022/10/28 05:59:16;;;;;;;13.80;9.33;;;;;;;20.48;38.85;96350.69;6141844;28;107406;-75
2022/10/28 06:02:19;;;;;;;14.13;10.00;;;;;;;20.56;37.91;96355.50;6133291;28;103347;-74
2022/10/28 06:05:22;;;;;;;14.53;10.50;;;;;;;20.80;36.71;96361.09;6140693;28;103426;-75
2022/10/28 06:08:25;;;;;;;14.07;12.03;;;;;;;21.92;34.87;96361.84;6140949;28;105939;-75
2022/10/28 06:11:30;;;;;;;15.87;11.83;;;;;;;21.36;35.89;96359.28;6140442;28;103518;-74
2022/10/28 06:14:35;;;;;;;16.60;11.07;;;;;;;21.24;36.51;96363.28;6131660;28;106083;-76
2022/10/28 06:17:38;;;;;;;19.43;12.00;;;;;;;21.15;36.66;96366.47;6141215;28;103349;-76
2022/10/28 06:20:41;;;;;;;15.80;11.10;;;;;;;21.11;36.78;96356.63;6141207;28;103362;-77
2022/10/28 06:23:44;;;;;;;19.80;11.80;;;;;;;21.24;36.75;96366.75;6139057;28;106633;-77
2022/10/28 06:26:48;;;;;;;20.60;11.23;;;;;;;21.34;36.43;96377.41;6136344;28;106671;-77
2022/10/28 06:29:52;;;;;;;20.63;12.60;;;;;;;21.45;36.62;96376.28;6140867;28;103654;-77
2022/10/28 06:32:57;;;;;;;24.63;11.43;;;;;;;21.52;36.47;96379.50;6141025;28;106858;-76
2022/10/28 06:36:01;;;;;;;16.70;9.90;;;;;;;21.58;36.18;96382.16;6134203;28;103448;-76
2022/10/28 06:39:04;;;;;;;22.03;11.93;;;;;;;21.66;36.04;96373.59;6140031;28;104576;-77
2022/10/28 06:42:09;;;;;;;16.57;10.97;;;;;;;21.73;35.87;96385.56;6139789;28;103387;-77
2022/10/28 06:45:13;;;;;;;14.23;10.30;;;;;;;21.79;35.63;96383.69;6140796;28;105674;-77
2022/10/28 06:48:18;;;;;;;13.30;10.20;;;;;;;21.81;35.52;96374.34;6133446;28;104836;-76
2022/10/28 06:51:21;;;;;;;18.40;11.30;;;;;;;21.86;35.29;96372.78;6140316;28;105109;-77
2022/10/28 06:54:24;;;;;;;16.70;9.90;;;;;;;21.86;35.42;96370.94;6140821;28;106237;-78
2022/10/28 06:57:29;;;;;;;14.03;10.03;;;;;;;21.94;35.62;96372.22;6140822;28;103140;-77
2022/10/28 07:00:32;;;;;;;14.43;10.10;;;;;;;22.00;35.58;96374.59;6131232;28;104322;-79
2022/10/28 07:03:35;;;;;;;14.63;9.50;;;;;;;22.08;35.15;96378.56;6139688;28;103263;-77
2022/10/28 07:06:38;;;;;;;17.30;10.43;;;;;;;22.14;35.45;96371.34;6139772;28;103523;-76
2022/10/28 07:09:46;;;;;;;14.60;9.00;;;;;;;22.19;35.54;96371.34;6135972;28;105339;-77
2022/10/28 07:12:52;;;;;;;16.13;10.17;;;;;;;22.28;35.58;96367.81;6136672;28;103444;-77
2022/10/28 07:15:57;;;;;;;12.60;9.40;;;;;;;22.37;35.40;96374.19;6139726;28;103052;-77
2022/10/28 07:19:00;;;;;;;11.57;9.40;;;;;;;22.38;35.38;96364.31;6139510;28;103241;-76
2022/10/28 07:22:04;;;;;;;11.90;9.00;;;;;;;22.48;35.41;96374.09;6130822;28;103691;-77
2022/10/28 07:25:08;;;;;;;14.07;8.43;;;;;;;22.52;35.83;96369.84;6140364;28;106885;-77
2022/10/28 07:28:12;;;;;;;12.03;9.10;;;;;;;22.54;35.54;96371.16;6140185;28;103035;-77
2022/10/28 07:31:15;;;;;;;9.90;8.40;;;;;;;22.59;35.43;96368.47;6140001;28;104962;-78
2022/10/28 07:34:20;;;;;;;10.67;8.57;;;;;;;22.66;35.68;96371.63;6132154;28;103350;-78
2022/10/28 07:37:29;;;;;;;11.37;9.40;;;;;;;22.51;35.45;96363.69;6139955;28;104957;-76
2022/10/28 07:40:32;;;;;;;14.87;12.40;;;;;;;22.43;35.50;96369.59;6139443;28;103507;-77
2022/10/28 07:43:37;;;;;;;15.97;11.90;;;;;;;22.45;35.79;96375.47;6134034;28;103218;-75
2022/10/28 07:46:41;;;;;;;15.10;11.47;;;;;;;22.51;35.70;96368.22;6135442;28;103466;-76
2022/10/28 07:49:47;;;;;;;16.47;10.50;;;;;;;22.61;35.67;96368.19;6865684;22;105475;-77
2022/10/28 07:52:50;;;;;;;12.10;10.70;;;;;;;22.66;35.21;96376.97;6184183;23;105842;-77
2022/10/28 07:55:55;;;;;;;15.87;10.67;;;;;;;22.68;34.98;96366.84;6151474;28;104162;-78
2022/10/28 07:59:00;;;;;;;16.63;10.13;;;;;;;22.70;35.14;96361.22;6161917;28;106572;-77
2022/10/28 08:02:03;;;;;;;14.37;10.20;;;;;;;22.72;35.05;96368.94;6161875;28;104137;-79
2022/10/28 08:05:07;;;;;;;16.17;10.63;;;;;;;22.74;35.14;96364.13;6161280;28;102918;-78
2022/10/28 08:08:11;;;;;;;14.90;9.60;;;;;;;22.73;35.46;96366.00;6150178;28;106772;-80
2022/10/28 08:11:17;;;;;;;17.03;11.37;;;;;;;22.75;35.01;96368.38;6163768;28;103823;-78
2022/10/28 08:14:24;;;;;;;15.87;14.13;;;;;;;22.77;35.42;96368.91;6170796;28;103729;-78
2022/10/28 08:17:27;;;;;;;16.90;13.90;;;;;;;22.80;35.27;96363.00;6160341;28;103345;-77
2022/10/28 08:20:30;;;;;;;17.23;14.73;;;;;;;22.81;35.25;96367.28;6159129;28;103234;-77
2022/10/28 08:23:37;;;;;;;15.53;13.93;;;;;;;22.82;35.08;96364.31;6164669;28;103871;-77
2022/10/28 08:26:42;;;;;;;17.03;13.40;;;;;;;22.82;35.48;96369.66;6165280;28;104023;-78
2022/10/28 08:29:47;;;;;;;14.93;12.93;;;;;;;22.80;35.17;96365.69;6153494;28;104312;-77
2022/10/28 08:32:50;;;;;;;13.77;12.00;;;;;;;22.83;35.21;96365.91;6165219;28;106488;-77
2022/10/28 08:35:54;;;;;;;17.30;12.10;;;;;;;22.82;35.34;96369.66;6165235;28;103554;-77
2022/10/28 08:38:58;;;;;;;12.03;10.83;;;;;;;22.85;35.41;96368.31;6164551;28;105581;-78
2022/10/28 08:42:15;;;;;;;12.63;11.33;;;;;;;22.85;35.58;96366.47;6154328;28;104307;-77
2022/10/28 08:45:25;;;;;;;22.90;11.17;;;;;;;22.85;35.42;96360.28;6164043;28;106788;-79
2022/10/28 08:48:32;;;;;;;11.87;10.40;;;;;;;22.81;35.30;96365.41;6164728;28;105050;-80
2022/10/28 08:51:41;;;;;;;13.10;10.00;;;;;;;22.82;35.49;96363.53;6158699;28;105343;-76
2022/10/28 08:54:50;;;;;;;12.37;10.10;;;;;;;22.82;35.17;96360.84;6159141;28;105828;-78
2022/10/28 08:57:56;;;;;;;15.40;10.40;;;;;;;22.80;35.52;96353.13;6164567;28;103124;-77
2022/10/28 09:01:01;;;;;;;12.23;9.20;;;;;;;22.77;35.38;96358.22;6164210;28;103645;-78
2022/10/28 09:04:16;;;;;;;11.70;9.80;;;;;;;22.78;35.53;96346.47;6153208;28;103580;-79
2022/10/28 09:07:22;;;;;;;12.40;10.23;;;;;;;22.77;35.65;96350.22;6164372;28;103606;-78
2022/10/28 09:10:45;;;;;;;14.07;10.60;;;;;;;22.79;35.67;96353.41;6164255;28;103305;-78
2022/10/28 09:14:04;;;;;;;16.03;11.80;;;;;;;22.80;35.53;96338.97;6163792;28;103071;-78
2022/10/28 09:17:18;;;;;;;10.93;9.83;;;;;;;22.80;35.82;96338.97;6156604;28;103384;-77
2022/10/28 09:20:36;;;;;;;13.53;11.30;;;;;;;22.80;35.86;96333.66;6163287;28;103403;-78
2022/10/28 09:23:48;;;;;;;12.00;9.50;;;;;;;22.86;35.47;96327.22;6163789;28;103680;-78
2022/10/28 09:27:01;;;;;;;10.33;9.30;;;;;;;22.81;35.41;96321.91;6151911;28;103869;-78
2022/10/28 09:30:21;;;;;;;16.27;9.63;;;;;;;22.82;35.88;96326.94;6164136;28;107154;-78
2022/10/28 09:33:51;;;;;;;10.03;9.03;;;;;;;22.86;35.21;96319.22;6164014;28;103795;-77
2022/10/28 09:36:58;;;;;;;13.33;8.77;;;;;;;22.88;35.54;96314.38;6157718;28;103834;-78
2022/10/28 09:40:05;;;;;;;8.47;7.53;;;;;;;22.89;35.52;96305.31;6158133;28;105133;-78
2022/10/28 09:43:21;;;;;;;10.30;8.10;;;;;;;22.93;35.85;96306.31;6163281;28;104983;-77
2022/10/28 09:46:29;;;;;;;8.43;7.37;;;;;;;22.94;35.77;96281.22;6163142;28;103716;-77
2022/10/28 09:49:40;;;;;;;10.63;8.07;;;;;;;22.94;35.22;96282.03;6151902;28;104171;-77
2022/10/28 09:52:53;;;;;;;9.67;7.80;;;;;;;22.93;36.01;96274.28;6162979;28;103356;-77
2022/10/28 09:55:57;;;;;;;8.53;6.97;;;;;;;23.00;35.73;96275.53;6163197;28;103991;-78
2022/10/28 09:59:02;;;;;;;7.43;6.73;;;;;;;23.00;35.83;96270.22;6163244;28;106086;-78
2022/10/28 10:02:25;;;;;;;10.37;8.30;;;;;;;22.96;35.63;96265.72;6153004;28;103123;-78
2022/10/28 10:05:33;;;;;;;9.50;6.50;;;;;;;23.04;35.74;96275.00;6162545;28;106128;-78
2022/10/28 10:08:37;;;;;;;7.00;6.30;;;;;;;23.03;35.88;96268.88;6164096;28;103713;-78
2022/10/28 10:11:44;;;;;;;6.80;6.03;;;;;;;23.04;35.81;96265.13;6152689;28;105322;-78
2022/10/28 10:14:50;;;;;;;7.00;6.30;;;;;;;23.04;35.78;96265.13;6162638;28;107507;-78
2022/10/28 10:17:55;;;;;;;8.60;6.50;;;;;;;23.03;35.61;96260.88;6163573;28;106437;-78
2022/10/28 10:21:01;;;;;;;7.00;5.87;;;;;;;23.01;35.70;96254.97;6161929;28;104688;-78
2022/10/28 10:24:30;;;;;;;7.60;6.00;;;;;;;23.03;36.19;96258.19;6154816;28;104868;-78
2022/10/28 10:27:34;;;;;;;7.00;5.80;;;;;;;23.03;35.96;96250.19;6168324;28;104577;-78
2022/10/28 10:30:40;;;;;;;6.27;5.67;;;;;;;23.03;36.03;96249.38;6165381;28;105192;-78
2022/10/28 10:33:43;;;;;;;6.30;5.70;;;;;;;23.03;35.98;96242.19;6158063;28;103959;-79
2022/10/28 10:36:54;;;;;;;5.63;5.13;;;;;;;23.00;36.06;96245.38;6156754;28;103431;-77
2022/10/28 10:40:06;;;;;;;6.60;6.00;;;;;;;22.99;36.42;96246.47;6162982;28;103385;-77
2022/10/28 10:43:29;;;;;;;6.50;5.83;;;;;;;22.98;36.59;96237.66;6162513;28;102741;-77
2022/10/28 10:46:32;;;;;;;5.80;5.33;;;;;;;22.95;36.65;96235.56;6151447;28;106298;-77
2022/10/28 10:49:36;;;;;;;6.13;5.53;;;;;;;22.93;36.42;96227.03;6161726;28;103319;-78
2022/10/28 10:52:49;;;;;;;5.73;5.23;;;;;;;22.94;36.34;96227.84;6160873;28;106485;-77
2022/10/28 10:55:55;;;;;;;8.10;5.23;;;;;;;22.92;36.49;96220.13;6161802;28;102977;-77
2022/10/28 10:59:03;;;;;;;7.07;5.60;;;;;;;22.87;36.63;96219.38;6151747;28;103181;-81
2022/10/28 11:02:22;;;;;;;5.53;5.00;;;;;;;22.84;36.75;96212.69;6162953;28;104074;-78
2022/10/28 11:05:26;;;;;;;6.00;5.40;;;;;;;22.86;36.38;96215.91;6162031;28;106602;-78
2022/10/28 11:08:43;;;;;;;5.80;5.30;;;;;;;22.84;36.35;96212.69;6150993;28;103104;-78
2022/10/28 11:11:46;;;;;;;5.97;5.37;;;;;;;22.83;36.88;96210.31;6161599;28;103792;-79
2022/10/28 11:14:55;;;;;;;7.27;5.10;;;;;;;22.82;36.70;96214.06;6161947;28;105488;-79
2022/10/28 11:18:01;;;;;;;6.13;5.30;;;;;;;22.79;36.57;96206.63;6161352;28;104947;-78
2022/10/28 11:21:10;;;;;;;6.10;4.97;;;;;;;22.74;36.78;96199.47;6151987;28;103251;-77
2022/10/28 11:24:29;;;;;;;4.63;4.23;;;;;;;22.73;36.29;96202.44;6160554;28;106224;-78
2022/10/28 11:27:50;;;;;;;10.00;4.67;;;;;;;22.69;36.16;96199.53;6161482;28;104021;-76
2022/10/28 11:31:14;;;;;;;6.10;5.50;;;;;;;22.69;36.23;96199.53;6151298;28;103021;-79
2022/10/28 11:34:38;;;;;;;5.20;4.80;;;;;;;22.66;36.19;96190.19;6161013;28;103176;-78
2022/10/28 11:37:57;;;;;;;6.37;4.53;;;;;;;22.65;36.18;96185.13;6162006;28;103827;-78
2022/10/28 11:41:17;;;;;;;6.33;4.90;;;;;;;22.62;36.14;96180.38;6161339;28;103889;-78
2022/10/28 11:44:32;;;;;;;6.00;4.63;;;;;;;22.62;35.97;96178.50;6150589;28;105193;-77
2022/10/28 11:47:52;;;;;;;5.80;5.00;;;;;;;22.59;36.08;96178.25;6160056;28;103411;-78
2022/10/28 11:51:07;;;;;;;6.23;5.53;;;;;;;22.54;36.15;96176.41;6161362;28;103975;-77
2022/10/28 11:54:25;;;;;;;5.80;5.20;;;;;;;22.53;36.74;96168.69;6149713;28;103856;-77
2022/10/28 11:57:45;;;;;;;6.63;5.30;;;;;;;22.47;36.35;96159.91;6160137;28;104871;-76
2022/10/28 12:01:00;;;;;;;6.07;5.07;;;;;;;22.50;36.40;96166.56;6161986;28;103222;-77
2022/10/28 12:04:13;;;;;;;5.83;5.33;;;;;;;22.46;36.20;96162.88;6161089;28;104101;-77
2022/10/28 12:07:47;;;;;;;7.40;5.40;;;;;;;22.45;36.12;96159.41;6153863;28;106829;-75
2022/10/28 12:11:07;;;;;;;6.07;4.50;;;;;;;22.42;36.15;96152.78;6163192;28;103526;-77
2022/10/28 12:14:22;;;;;;;5.60;5.10;;;;;;;22.42;36.41;96151.97;6166421;28;103358;-77
2022/10/28 12:17:33;;;;;;;5.70;4.70;;;;;;;22.41;36.15;96158.38;6152785;28;104211;-77
2022/10/28 12:20:42;;;;;;;5.20;4.80;;;;;;;22.41;37.13;96151.19;6161638;28;103658;-77
2022/10/28 12:23:48;;;;;;;5.67;5.17;;;;;;;22.39;37.67;96148.00;6161218;28;106278;-77
2022/10/28 12:26:56;;;;;;;5.23;4.83;;;;;;;22.38;38.12;96150.94;6160981;28;103388;-77
2022/10/28 12:30:07;;;;;;;5.20;4.80;;;;;;;22.37;38.21;96154.69;6152813;28;104883;-78
2022/10/28 12:33:15;;;;;;;5.37;4.87;;;;;;;22.36;37.59;96150.44;6160882;28;103461;-78
2022/10/28 12:36:24;;;;;;;5.63;4.90;;;;;;;22.32;37.09;96146.72;6161342;28;103493;-79
2022/10/28 12:39:31;;;;;;;5.40;4.90;;;;;;;22.35;36.93;96138.19;6149498;28;105726;-77
2022/10/28 12:42:42;;;;;;;5.10;4.70;;;;;;;22.34;37.12;96145.34;6164904;28;104406;-77
2022/10/28 12:45:50;;;;;;;4.47;4.07;;;;;;;22.35;36.79;96140.84;6163750;28;103154;-79
2022/10/28 12:48:57;;;;;;;5.10;4.70;;;;;;;22.34;36.91;96136.56;6159971;28;103366;-80
2022/10/28 12:52:09;;;;;;;4.57;4.17;;;;;;;22.33;36.29;96134.97;6151170;28;103310;-78
2022/10/28 12:55:25;;;;;;;4.40;4.00;;;;;;;22.32;36.57;96133.38;6160858;28;105703;-78
2022/10/28 12:58:33;;;;;;;4.63;4.23;;;;;;;22.31;36.36;96134.47;6160829;28;103466;-77
2022/10/28 13:01:38;;;;;;;4.37;4.00;;;;;;;22.31;36.31;96131.78;6146107;28;104057;-77
2022/10/28 13:04:42;;;;;;;4.43;4.13;;;;;;;22.31;35.93;96123.78;6171709;23;105792;-71
2022/10/28 13:08:00;;;;;;;4.27;3.87;;;;;;;22.27;35.90;96128.09;6143808;22;104443;-70
2022/10/28 13:11:26;;;;;;;4.80;4.03;;;;;;;22.28;36.03;96114.50;6140594;28;103333;-69
2022/10/28 13:15:12;;;;;;;4.23;3.83;;;;;;;22.28;36.10;96119.03;6110582;28;104017;-70
2022/10/28 13:18:51;;;;;;;4.53;4.13;;;;;;;22.26;35.90;96123.84;6113904;28;104127;-71
2022/10/28 13:22:12;;;;;;;4.10;3.70;;;;;;;22.23;35.95;96119.88;6139831;28;103214;-71
2022/10/28 13:25:33;;;;;;;4.10;3.80;;;;;;;22.22;36.06;96126.28;6128358;28;102964;-70
2022/10/28 13:28:43;;;;;;;4.07;3.63;;;;;;;22.21;36.01;96118.56;6139421;28;103458;-71
2022/10/28 13:31:47;;;;;;;4.40;3.40;;;;;;;22.18;35.63;96119.94;6139307;28;103120;-71
2022/10/28 13:34:52;;;;;;;4.10;3.70;;;;;;;22.16;35.98;96118.59;6137546;28;103293;-71
2022/10/28 13:41:33;;;;;;;3.53;3.23;;;;;;;22.16;35.83;96115.91;6064454;23;103481;-70
2022/10/28 13:44:50;;;;;;;3.70;3.40;;;;;;;22.14;35.96;96118.88;6066728;28;103569;-70
2022/10/28 13:48:46;;;;;;;4.90;4.03;;;;;;;22.13;35.74;96114.63;6062706;28;103289;-71
2022/10/28 13:51:59;;;;;;;3.50;3.20;;;;;;;22.13;35.56;96114.63;6016239;29;103345;-70
2022/10/28 13:55:28;;;;;;;3.67;3.37;;;;;;;22.13;35.26;96113.81;6016819;29;103251;-72
2022/10/28 13:58:50;;;;;;;3.33;3.00;;;;;;;22.12;35.49;96113.03;6059198;28;102940;-71
2022/10/28 14:02:01;;;;;;;5.00;4.43;;;;;;;22.10;35.30;96112.50;6067449;28;106265;-69
2022/10/28 14:05:46;;;;;;;4.30;3.97;;;;;;;22.09;35.74;96108.25;6067694;28;103025;-70
2022/10/28 14:08:51;;;;;;;4.37;3.90;;;;;;;22.07;35.55;96108.53;6064937;28;103302;-70
2022/10/28 14:12:11;;;;;;;4.00;3.70;;;;;;;22.07;35.49;96111.22;6057347;28;104942;-70
2022/10/28 14:15:21;;;;;;;4.70;4.30;;;;;;;22.06;35.36;96103.50;6067594;28;103164;-71
2022/10/28 14:18:24;;;;;;;4.53;4.13;;;;;;;22.05;35.11;96104.56;6090016;28;103510;-71
2022/10/28 14:21:59;;;;;;;4.40;3.97;;;;;;;22.03;35.36;96104.84;6080971;28;102698;-71
2022/10/28 14:25:47;;;;;;;4.37;3.90;;;;;;;22.02;35.02;96105.13;6084150;28;103458;-70
2022/10/28 14:28:55;;;;;;;4.13;3.83;;;;;;;22.03;34.82;96109.38;6042264;28;103106;-67
2022/10/28 14:31:58;;;;;;;4.60;3.77;;;;;;;21.99;35.84;96100.34;6055538;28;103469;-67
2022/10/28 14:35:03;;;;;;;4.50;3.63;;;;;;;21.96;36.28;96101.69;6035924;28;103475;-68